Terminal Aerodrome Forecast
Issued by NWS

Home | Current Version | Previous Version | Graphics & Text | Print | Product List | Glossary On
Versions: 1 2 3 4 5 6 7 8 9 10 11 12 13 14 15 16 17 18 19 20 21 22 23 24 25 26 27 28 29
000
FTUS43 KLOT 300258 AAA
TAFDPA
TAF AMD
KDPA 300258Z 3003/3024 06008KT P6SM OVC025
     FM301200 08012KT P6SM BKN025 OVC120
     FM301500 08015G22KT P6SM VCSH BKN025 OVC100
     FM301800 08015G21KT 5SM -RA BKN025 OVC080
     FM302100 07013G20KT 2SM -RA BR OVC010=

USA.gov is the U.S. government's official web portal to all federal, state and local government web resources and services.